sensor_id;sensor_type;location;lat;lon;timestamp;P1;durP1;ratioP1;P2;durP2;ratioP2
61702;SDS011;47622;47.726;3.298;2023-08-06T00:00:38;7.90;;;2.03;;
61702;SDS011;47622;47.726;3.298;2023-08-06T00:03:03;5.53;;;1.70;;
61702;SDS011;47622;47.726;3.298;2023-08-06T00:05:30;9.55;;;2.00;;
61702;SDS011;47622;47.726;3.298;2023-08-06T00:07:56;4.13;;;1.50;;
61702;SDS011;47622;47.726;3.298;2023-08-06T00:10:21;8.25;;;2.08;;
61702;SDS011;47622;47.726;3.298;2023-08-06T00:12:47;6.68;;;1.60;;
61702;SDS011;47622;47.726;3.298;2023-08-06T00:15:13;3.65;;;1.42;;
61702;SDS011;47622;47.726;3.298;2023-08-06T00:17:39;10.57;;;2.05;;
61702;SDS011;47622;47.726;3.298;2023-08-06T00:20:05;8.77;;;2.05;;
61702;SDS011;47622;47.726;3.298;2023-08-06T00:22:35;7.63;;;1.90;;
61702;SDS011;47622;47.726;3.298;2023-08-06T00:25:01;11.55;;;2.30;;
61702;SDS011;47622;47.726;3.298;2023-08-06T00:27:27;7.07;;;1.83;;
61702;SDS011;47622;47.726;3.298;2023-08-06T00:29:53;8.00;;;1.75;;
61702;SDS011;47622;47.726;3.298;2023-08-06T00:32:21;6.07;;;1.73;;
61702;SDS011;47622;47.726;3.298;2023-08-06T00:34:46;11.35;;;2.55;;
61702;SDS011;47622;47.726;3.298;2023-08-06T00:37:15;8.48;;;1.83;;
61702;SDS011;47622;47.726;3.298;2023-08-06T00:39:41;8.70;;;2.03;;
61702;SDS011;47622;47.726;3.298;2023-08-06T00:42:07;7.50;;;1.90;;
61702;SDS011;47622;47.726;3.298;2023-08-06T00:44:33;6.20;;;1.52;;
61702;SDS011;47622;47.726;3.298;2023-08-06T00:46:59;8.75;;;1.70;;
61702;SDS011;47622;47.726;3.298;2023-08-06T00:49:26;9.15;;;2.22;;
61702;SDS011;47622;47.726;3.298;2023-08-06T00:51:53;6.93;;;1.70;;
61702;SDS011;47622;47.726;3.298;2023-08-06T00:54:20;6.82;;;1.70;;
61702;SDS011;47622;47.726;3.298;2023-08-06T00:56:45;8.85;;;1.80;;
61702;SDS011;47622;47.726;3.298;2023-08-06T00:59:11;6.78;;;1.88;;
61702;SDS011;47622;47.726;3.298;2023-08-06T01:01:38;9.57;;;1.90;;
61702;SDS011;47622;47.726;3.298;2023-08-06T01:04:03;5.22;;;1.63;;
61702;SDS011;47622;47.726;3.298;2023-08-06T01:06:39;7.82;;;2.10;;
61702;SDS011;47622;47.726;3.298;2023-08-06T01:14:57;7.88;;;1.58;;
61702;SDS011;47622;47.726;3.298;2023-08-06T01:17:32;6.03;;;1.65;;
61702;SDS011;47622;47.726;3.298;2023-08-06T01:19:59;7.38;;;1.60;;
61702;SDS011;47622;47.726;3.298;2023-08-06T01:22:25;6.97;;;1.70;;
61702;SDS011;47622;47.726;3.298;2023-08-06T01:24:50;7.70;;;1.60;;
61702;SDS011;47622;47.726;3.298;2023-08-06T01:27:28;6.47;;;1.90;;
61702;SDS011;47622;47.726;3.298;2023-08-06T01:30:20;6.47;;;1.90;;
61702;SDS011;47622;47.726;3.298;2023-08-06T01:32:58;7.72;;;2.15;;
61702;SDS011;47622;47.726;3.298;2023-08-06T01:35:26;6.25;;;1.73;;
61702;SDS011;47622;47.726;3.298;2023-08-06T01:37:54;5.28;;;1.80;;
61702;SDS011;47622;47.726;3.298;2023-08-06T01:40:21;7.50;;;1.95;;
61702;SDS011;47622;47.726;3.298;2023-08-06T01:42:47;7.53;;;1.65;;
61702;SDS011;47622;47.726;3.298;2023-08-06T01:45:12;9.68;;;2.30;;
61702;SDS011;47622;47.726;3.298;2023-08-06T01:47:38;5.78;;;1.52;;
61702;SDS011;47622;47.726;3.298;2023-08-06T01:50:03;5.93;;;1.30;;
61702;SDS011;47622;47.726;3.298;2023-08-06T01:52:29;8.52;;;2.13;;
61702;SDS011;47622;47.726;3.298;2023-08-06T01:54:56;8.13;;;1.92;;
61702;SDS011;47622;47.726;3.298;2023-08-06T01:57:22;3.28;;;1.23;;
61702;SDS011;47622;47.726;3.298;2023-08-06T01:59:47;4.70;;;1.58;;
61702;SDS011;47622;47.726;3.298;2023-08-06T02:02:13;6.22;;;1.83;;
61702;SDS011;47622;47.726;3.298;2023-08-06T02:04:38;7.10;;;1.73;;
61702;SDS011;47622;47.726;3.298;2023-08-06T02:07:05;5.88;;;1.50;;
61702;SDS011;47622;47.726;3.298;2023-08-06T02:09:31;6.88;;;2.10;;
61702;SDS011;47622;47.726;3.298;2023-08-06T02:11:57;7.25;;;1.83;;
61702;SDS011;47622;47.726;3.298;2023-08-06T02:14:22;5.65;;;1.70;;
61702;SDS011;47622;47.726;3.298;2023-08-06T02:16:49;7.93;;;2.10;;
61702;SDS011;47622;47.726;3.298;2023-08-06T02:19:15;6.75;;;1.90;;
61702;SDS011;47622;47.726;3.298;2023-08-06T02:21:41;5.35;;;2.35;;
61702;SDS011;47622;47.726;3.298;2023-08-06T02:24:06;7.40;;;1.90;;
61702;SDS011;47622;47.726;3.298;2023-08-06T02:26:32;8.18;;;1.83;;
61702;SDS011;47622;47.726;3.298;2023-08-06T02:28:57;6.93;;;1.73;;
61702;SDS011;47622;47.726;3.298;2023-08-06T02:31:23;7.32;;;1.95;;
61702;SDS011;47622;47.726;3.298;2023-08-06T02:33:48;9.30;;;1.70;;
61702;SDS011;47622;47.726;3.298;2023-08-06T02:36:15;4.88;;;1.70;;
61702;SDS011;47622;47.726;3.298;2023-08-06T02:38:41;5.90;;;1.90;;
61702;SDS011;47622;47.726;3.298;2023-08-06T02:41:06;6.72;;;1.77;;
61702;SDS011;47622;47.726;3.298;2023-08-06T02:43:33;6.35;;;1.52;;
61702;SDS011;47622;47.726;3.298;2023-08-06T02:46:02;4.63;;;1.25;;
61702;SDS011;47622;47.726;3.298;2023-08-06T02:48:27;4.22;;;1.60;;
61702;SDS011;47622;47.726;3.298;2023-08-06T02:50:56;4.75;;;1.60;;
61702;SDS011;47622;47.726;3.298;2023-08-06T02:53:24;4.78;;;1.60;;
61702;SDS011;47622;47.726;3.298;2023-08-06T02:55:50;6.85;;;1.63;;
61702;SDS011;47622;47.726;3.298;2023-08-06T02:58:15;4.57;;;1.42;;
61702;SDS011;47622;47.726;3.298;2023-08-06T03:00:42;3.85;;;1.65;;
61702;SDS011;47622;47.726;3.298;2023-08-06T03:03:08;4.55;;;1.67;;
61702;SDS011;47622;47.726;3.298;2023-08-06T03:05:34;3.92;;;1.42;;
61702;SDS011;47622;47.726;3.298;2023-08-06T03:08:00;6.43;;;1.50;;
61702;SDS011;47622;47.726;3.298;2023-08-06T03:10:26;8.88;;;1.90;;
61702;SDS011;47622;47.726;3.298;2023-08-06T03:12:51;4.93;;;1.50;;
61702;SDS011;47622;47.726;3.298;2023-08-06T03:15:18;3.17;;;1.55;;
61702;SDS011;47622;47.726;3.298;2023-08-06T03:17:44;3.40;;;1.50;;
61702;SDS011;47622;47.726;3.298;2023-08-06T03:20:09;4.60;;;1.40;;
61702;SDS011;47622;47.726;3.298;2023-08-06T03:22:35;1.85;;;1.23;;
61702;SDS011;47622;47.726;3.298;2023-08-06T03:25:01;3.28;;;1.60;;
61702;SDS011;47622;47.726;3.298;2023-08-06T03:27:27;6.32;;;1.70;;
61702;SDS011;47622;47.726;3.298;2023-08-06T03:29:52;4.63;;;1.30;;
61702;SDS011;47622;47.726;3.298;2023-08-06T03:32:18;8.40;;;1.63;;
61702;SDS011;47622;47.726;3.298;2023-08-06T03:34:43;4.78;;;1.70;;
61702;SDS011;47622;47.726;3.298;2023-08-06T03:37:09;3.70;;;1.38;;
61702;SDS011;47622;47.726;3.298;2023-08-06T03:39:35;3.13;;;1.50;;
61702;SDS011;47622;47.726;3.298;2023-08-06T03:42:00;7.65;;;1.95;;
61702;SDS011;47622;47.726;3.298;2023-08-06T03:44:26;4.68;;;1.50;;
61702;SDS011;47622;47.726;3.298;2023-08-06T03:46:53;4.20;;;1.60;;
61702;SDS011;47622;47.726;3.298;2023-08-06T03:49:19;6.05;;;1.42;;
61702;SDS011;47622;47.726;3.298;2023-08-06T03:51:44;4.25;;;1.40;;
61702;SDS011;47622;47.726;3.298;2023-08-06T03:54:10;4.53;;;1.67;;
61702;SDS011;47622;47.726;3.298;2023-08-06T03:56:35;5.70;;;1.75;;
61702;SDS011;47622;47.726;3.298;2023-08-06T03:59:01;3.42;;;1.30;;
61702;SDS011;47622;47.726;3.298;2023-08-06T04:01:26;5.28;;;1.58;;
61702;SDS011;47622;47.726;3.298;2023-08-06T04:03:52;6.72;;;1.88;;
61702;SDS011;47622;47.726;3.298;2023-08-06T04:06:17;3.65;;;1.52;;
61702;SDS011;47622;47.726;3.298;2023-08-06T04:08:43;9.18;;;1.70;;
61702;SDS011;47622;47.726;3.298;2023-08-06T04:11:09;5.05;;;1.80;;
61702;SDS011;47622;47.726;3.298;2023-08-06T04:13:34;6.82;;;1.80;;
61702;SDS011;47622;47.726;3.298;2023-08-06T04:16:00;5.20;;;1.50;;
61702;SDS011;47622;47.726;3.298;2023-08-06T04:18:27;5.10;;;1.85;;
61702;SDS011;47622;47.726;3.298;2023-08-06T04:20:52;6.38;;;1.73;;
61702;SDS011;47622;47.726;3.298;2023-08-06T04:23:20;7.43;;;1.60;;
61702;SDS011;47622;47.726;3.298;2023-08-06T04:25:46;8.68;;;1.80;;
61702;SDS011;47622;47.726;3.298;2023-08-06T04:28:12;6.22;;;1.63;;
61702;SDS011;47622;47.726;3.298;2023-08-06T04:30:38;6.25;;;2.17;;
61702;SDS011;47622;47.726;3.298;2023-08-06T04:33:03;5.32;;;1.75;;
61702;SDS011;47622;47.726;3.298;2023-08-06T04:35:29;6.93;;;1.77;;
61702;SDS011;47622;47.726;3.298;2023-08-06T04:37:54;3.20;;;1.73;;
61702;SDS011;47622;47.726;3.298;2023-08-06T04:40:20;9.10;;;1.90;;
61702;SDS011;47622;47.726;3.298;2023-08-06T04:42:46;6.55;;;1.80;;
61702;SDS011;47622;47.726;3.298;2023-08-06T04:45:11;6.05;;;1.95;;
61702;SDS011;47622;47.726;3.298;2023-08-06T04:47:37;5.20;;;1.90;;
61702;SDS011;47622;47.726;3.298;2023-08-06T04:50:02;8.57;;;2.25;;
61702;SDS011;47622;47.726;3.298;2023-08-06T04:52:28;6.10;;;2.50;;
61702;SDS011;47622;47.726;3.298;2023-08-06T04:54:54;11.48;;;2.47;;
61702;SDS011;47622;47.726;3.298;2023-08-06T04:57:20;11.48;;;2.35;;
61702;SDS011;47622;47.726;3.298;2023-08-06T04:59:46;10.32;;;1.95;;
61702;SDS011;47622;47.726;3.298;2023-08-06T05:02:11;6.47;;;1.85;;
61702;SDS011;47622;47.726;3.298;2023-08-06T05:04:37;13.40;;;2.70;;
61702;SDS011;47622;47.726;3.298;2023-08-06T05:07:03;5.15;;;2.30;;
61702;SDS011;47622;47.726;3.298;2023-08-06T05:09:30;7.65;;;2.75;;
61702;SDS011;47622;47.726;3.298;2023-08-06T05:11:56;8.90;;;3.25;;
61702;SDS011;47622;47.726;3.298;2023-08-06T05:14:21;6.53;;;2.13;;
61702;SDS011;47622;47.726;3.298;2023-08-06T05:16:47;7.55;;;2.45;;
61702;SDS011;47622;47.726;3.298;2023-08-06T05:19:12;8.48;;;2.30;;
61702;SDS011;47622;47.726;3.298;2023-08-06T05:21:38;12.18;;;2.45;;
61702;SDS011;47622;47.726;3.298;2023-08-06T05:24:03;8.05;;;2.15;;
61702;SDS011;47622;47.726;3.298;2023-08-06T05:26:29;9.35;;;2.50;;
61702;SDS011;47622;47.726;3.298;2023-08-06T05:28:54;6.57;;;2.40;;
61702;SDS011;47622;47.726;3.298;2023-08-06T05:31:20;8.52;;;2.85;;
61702;SDS011;47622;47.726;3.298;2023-08-06T05:33:45;7.88;;;2.45;;
61702;SDS011;47622;47.726;3.298;2023-08-06T05:36:11;7.90;;;2.47;;
61702;SDS011;47622;47.726;3.298;2023-08-06T05:38:37;9.75;;;2.45;;
61702;SDS011;47622;47.726;3.298;2023-08-06T05:41:02;7.95;;;2.72;;
61702;SDS011;47622;47.726;3.298;2023-08-06T05:43:28;7.95;;;2.70;;
61702;SDS011;47622;47.726;3.298;2023-08-06T05:45:53;8.60;;;2.30;;
61702;SDS011;47622;47.726;3.298;2023-08-06T05:48:19;6.85;;;2.25;;
61702;SDS011;47622;47.726;3.298;2023-08-06T05:50:44;10.65;;;2.38;;
61702;SDS011;47622;47.726;3.298;2023-08-06T05:53:10;7.40;;;2.65;;
61702;SDS011;47622;47.726;3.298;2023-08-06T05:55:35;8.55;;;2.35;;
61702;SDS011;47622;47.726;3.298;2023-08-06T05:58:01;6.18;;;2.33;;
61702;SDS011;47622;47.726;3.298;2023-08-06T06:00:26;7.03;;;2.30;;
61702;SDS011;47622;47.726;3.298;2023-08-06T06:02:52;9.60;;;2.45;;
61702;SDS011;47622;47.726;3.298;2023-08-06T06:05:18;7.95;;;2.33;;
61702;SDS011;47622;47.726;3.298;2023-08-06T06:07:43;9.60;;;3.03;;
61702;SDS011;47622;47.726;3.298;2023-08-06T06:10:09;6.57;;;2.20;;
61702;SDS011;47622;47.726;3.298;2023-08-06T06:12:35;6.72;;;2.25;;
61702;SDS011;47622;47.726;3.298;2023-08-06T06:15:00;7.35;;;2.65;;
61702;SDS011;47622;47.726;3.298;2023-08-06T06:17:26;8.05;;;2.63;;
61702;SDS011;47622;47.726;3.298;2023-08-06T06:19:52;5.25;;;2.60;;
61702;SDS011;47622;47.726;3.298;2023-08-06T06:22:18;7.50;;;2.70;;
61702;SDS011;47622;47.726;3.298;2023-08-06T06:24:44;5.93;;;2.35;;
61702;SDS011;47622;47.726;3.298;2023-08-06T06:27:09;8.50;;;2.45;;
61702;SDS011;47622;47.726;3.298;2023-08-06T06:29:35;12.30;;;2.63;;
61702;SDS011;47622;47.726;3.298;2023-08-06T06:32:00;6.63;;;2.10;;
61702;SDS011;47622;47.726;3.298;2023-08-06T06:34:26;7.07;;;2.10;;
61702;SDS011;47622;47.726;3.298;2023-08-06T06:36:51;8.32;;;2.45;;
61702;SDS011;47622;47.726;3.298;2023-08-06T06:39:17;5.63;;;2.17;;
61702;SDS011;47622;47.726;3.298;2023-08-06T06:41:43;4.97;;;2.47;;
61702;SDS011;47622;47.726;3.298;2023-08-06T06:44:09;6.05;;;2.22;;
61702;SDS011;47622;47.726;3.298;2023-08-06T06:46:35;6.80;;;2.17;;
61702;SDS011;47622;47.726;3.298;2023-08-06T06:49:00;8.65;;;2.40;;
61702;SDS011;47622;47.726;3.298;2023-08-06T06:51:26;5.22;;;2.40;;
61702;SDS011;47622;47.726;3.298;2023-08-06T06:53:51;6.20;;;2.25;;
61702;SDS011;47622;47.726;3.298;2023-08-06T06:56:17;6.45;;;2.22;;
61702;SDS011;47622;47.726;3.298;2023-08-06T06:58:42;4.22;;;1.80;;
61702;SDS011;47622;47.726;3.298;2023-08-06T07:01:08;6.80;;;2.58;;
61702;SDS011;47622;47.726;3.298;2023-08-06T07:03:36;6.03;;;2.60;;
61702;SDS011;47622;47.726;3.298;2023-08-06T07:06:02;5.00;;;2.10;;
61702;SDS011;47622;47.726;3.298;2023-08-06T07:08:30;4.88;;;2.00;;
61702;SDS011;47622;47.726;3.298;2023-08-06T07:10:59;6.95;;;2.05;;
61702;SDS011;47622;47.726;3.298;2023-08-06T07:15:55;5.78;;;2.10;;
61702;SDS011;47622;47.726;3.298;2023-08-06T07:18:21;4.28;;;2.10;;
61702;SDS011;47622;47.726;3.298;2023-08-06T07:20:50;4.85;;;1.88;;
61702;SDS011;47622;47.726;3.298;2023-08-06T07:23:16;6.63;;;2.03;;
61702;SDS011;47622;47.726;3.298;2023-08-06T07:25:43;4.50;;;1.70;;
61702;SDS011;47622;47.726;3.298;2023-08-06T07:28:09;5.45;;;1.85;;
61702;SDS011;47622;47.726;3.298;2023-08-06T07:30:38;4.32;;;1.60;;
61702;SDS011;47622;47.726;3.298;2023-08-06T07:33:04;4.85;;;1.88;;
61702;SDS011;47622;47.726;3.298;2023-08-06T07:35:30;5.20;;;1.85;;
61702;SDS011;47622;47.726;3.298;2023-08-06T07:37:57;3.13;;;1.70;;
61702;SDS011;47622;47.726;3.298;2023-08-06T07:40:23;4.18;;;1.70;;
61702;SDS011;47622;47.726;3.298;2023-08-06T07:42:48;4.40;;;1.70;;
61702;SDS011;47622;47.726;3.298;2023-08-06T07:45:14;5.75;;;2.05;;
61702;SDS011;47622;47.726;3.298;2023-08-06T07:47:39;9.75;;;2.20;;
61702;SDS011;47622;47.726;3.298;2023-08-06T07:50:05;4.57;;;1.98;;
61702;SDS011;47622;47.726;3.298;2023-08-06T07:52:31;4.57;;;1.85;;
61702;SDS011;47622;47.726;3.298;2023-08-06T07:54:57;4.22;;;1.73;;
61702;SDS011;47622;47.726;3.298;2023-08-06T07:57:23;3.90;;;1.90;;
61702;SDS011;47622;47.726;3.298;2023-08-06T07:59:49;6.13;;;1.88;;
61702;SDS011;47622;47.726;3.298;2023-08-06T08:02:15;6.35;;;2.05;;
61702;SDS011;47622;47.726;3.298;2023-08-06T08:04:40;5.13;;;1.90;;
61702;SDS011;47622;47.726;3.298;2023-08-06T08:07:06;5.93;;;2.03;;
61702;SDS011;47622;47.726;3.298;2023-08-06T08:09:31;3.17;;;1.70;;
61702;SDS011;47622;47.726;3.298;2023-08-06T08:11:59;3.58;;;1.65;;
61702;SDS011;47622;47.726;3.298;2023-08-06T08:14:26;5.45;;;1.88;;
61702;SDS011;47622;47.726;3.298;2023-08-06T08:16:51;6.88;;;2.08;;
61702;SDS011;47622;47.726;3.298;2023-08-06T08:19:17;4.60;;;1.60;;
61702;SDS011;47622;47.726;3.298;2023-08-06T08:21:43;5.60;;;2.35;;
61702;SDS011;47622;47.726;3.298;2023-08-06T08:24:08;4.07;;;1.70;;
61702;SDS011;47622;47.726;3.298;2023-08-06T08:26:34;4.20;;;1.80;;
61702;SDS011;47622;47.726;3.298;2023-08-06T08:28:59;7.30;;;1.98;;
61702;SDS011;47622;47.726;3.298;2023-08-06T08:31:26;5.70;;;1.95;;
61702;SDS011;47622;47.726;3.298;2023-08-06T08:33:53;5.25;;;1.40;;
61702;SDS011;47622;47.726;3.298;2023-08-06T08:36:19;4.78;;;1.85;;
61702;SDS011;47622;47.726;3.298;2023-08-06T08:38:44;4.00;;;1.60;;
61702;SDS011;47622;47.726;3.298;2023-08-06T08:41:11;4.20;;;1.75;;
61702;SDS011;47622;47.726;3.298;2023-08-06T08:43:37;7.10;;;1.90;;
61702;SDS011;47622;47.726;3.298;2023-08-06T08:46:05;3.72;;;1.55;;
61702;SDS011;47622;47.726;3.298;2023-08-06T08:48:34;3.05;;;1.60;;
61702;SDS011;47622;47.726;3.298;2023-08-06T08:50:59;6.28;;;1.83;;
61702;SDS011;47622;47.726;3.298;2023-08-06T08:53:26;5.85;;;1.70;;
61702;SDS011;47622;47.726;3.298;2023-08-06T08:55:53;3.05;;;1.40;;
61702;SDS011;47622;47.726;3.298;2023-08-06T08:58:19;3.80;;;1.60;;
61702;SDS011;47622;47.726;3.298;2023-08-06T09:00:45;4.10;;;1.67;;
61702;SDS011;47622;47.726;3.298;2023-08-06T09:03:13;3.50;;;1.70;;
61702;SDS011;47622;47.726;3.298;2023-08-06T09:05:40;7.07;;;1.40;;
61702;SDS011;47622;47.726;3.298;2023-08-06T09:08:10;3.05;;;1.35;;
61702;SDS011;47622;47.726;3.298;2023-08-06T09:10:39;4.28;;;1.50;;
61702;SDS011;47622;47.726;3.298;2023-08-06T09:13:06;5.40;;;1.42;;
61702;SDS011;47622;47.726;3.298;2023-08-06T09:15:31;2.47;;;1.42;;
61702;SDS011;47622;47.726;3.298;2023-08-06T09:17:58;2.92;;;1.10;;
61702;SDS011;47622;47.726;3.298;2023-08-06T09:20:24;4.13;;;1.15;;
61702;SDS011;47622;47.726;3.298;2023-08-06T09:22:51;3.33;;;1.55;;
61702;SDS011;47622;47.726;3.298;2023-08-06T09:25:22;4.90;;;1.48;;
61702;SDS011;47622;47.726;3.298;2023-08-06T09:27:53;3.08;;;1.40;;
61702;SDS011;47622;47.726;3.298;2023-08-06T09:30:28;3.63;;;1.40;;
61702;SDS011;47622;47.726;3.298;2023-08-06T09:32:58;4.43;;;1.55;;
61702;SDS011;47622;47.726;3.298;2023-08-06T09:35:24;4.82;;;1.48;;
61702;SDS011;47622;47.726;3.298;2023-08-06T09:37:50;4.93;;;1.45;;
61702;SDS011;47622;47.726;3.298;2023-08-06T09:42:54;2.83;;;1.40;;
61702;SDS011;47622;47.726;3.298;2023-08-06T09:45:20;3.13;;;1.10;;
61702;SDS011;47622;47.726;3.298;2023-08-06T09:47:47;3.33;;;1.25;;
61702;SDS011;47622;47.726;3.298;2023-08-06T09:50:14;5.32;;;1.35;;
61702;SDS011;47622;47.726;3.298;2023-08-06T09:52:47;2.85;;;1.60;;
61702;SDS011;47622;47.726;3.298;2023-08-06T09:55:15;3.28;;;1.17;;
61702;SDS011;47622;47.726;3.298;2023-08-06T09:57:41;3.25;;;1.33;;
61702;SDS011;47622;47.726;3.298;2023-08-06T10:00:07;5.43;;;1.25;;
61702;SDS011;47622;47.726;3.298;2023-08-06T10:02:35;2.60;;;1.10;;
61702;SDS011;47622;47.726;3.298;2023-08-06T10:05:09;5.90;;;1.30;;
61702;SDS011;47622;47.726;3.298;2023-08-06T10:07:35;2.92;;;1.20;;
61702;SDS011;47622;47.726;3.298;2023-08-06T10:10:01;5.53;;;1.38;;
61702;SDS011;47622;47.726;3.298;2023-08-06T10:12:29;4.78;;;1.80;;
61702;SDS011;47622;47.726;3.298;2023-08-06T10:14:59;4.22;;;1.40;;
61702;SDS011;47622;47.726;3.298;2023-08-06T10:17:26;2.75;;;1.23;;
61702;SDS011;47622;47.726;3.298;2023-08-06T10:19:53;2.72;;;1.30;;
61702;SDS011;47622;47.726;3.298;2023-08-06T10:22:23;3.25;;;1.13;;
61702;SDS011;47622;47.726;3.298;2023-08-06T10:24:52;1.65;;;1.10;;
61702;SDS011;47622;47.726;3.298;2023-08-06T10:27:41;3.03;;;1.33;;
61702;SDS011;47622;47.726;3.298;2023-08-06T10:30:31;1.77;;;1.02;;
61702;SDS011;47622;47.726;3.298;2023-08-06T10:33:02;1.65;;;1.30;;
61702;SDS011;47622;47.726;3.298;2023-08-06T10:35:35;3.80;;;1.23;;
61702;SDS011;47622;47.726;3.298;2023-08-06T10:38:19;3.92;;;1.38;;
61702;SDS011;47622;47.726;3.298;2023-08-06T10:43:31;3.13;;;1.30;;
61702;SDS011;47622;47.726;3.298;2023-08-06T10:46:03;2.30;;;1.20;;
61702;SDS011;47622;47.726;3.298;2023-08-06T10:48:38;5.13;;;1.75;;
61702;SDS011;47622;47.726;3.298;2023-08-06T10:51:11;2.35;;;1.30;;
61702;SDS011;47622;47.726;3.298;2023-08-06T10:53:38;3.05;;;1.30;;
61702;SDS011;47622;47.726;3.298;2023-08-06T10:56:12;5.30;;;1.40;;
61702;SDS011;47622;47.726;3.298;2023-08-06T10:58:41;3.90;;;1.70;;
61702;SDS011;47622;47.726;3.298;2023-08-06T11:01:08;3.35;;;1.20;;
61702;SDS011;47622;47.726;3.298;2023-08-06T11:03:34;2.13;;;1.08;;
61702;SDS011;47622;47.726;3.298;2023-08-06T11:06:00;1.80;;;0.93;;
61702;SDS011;47622;47.726;3.298;2023-08-06T11:08:28;3.60;;;1.25;;
61702;SDS011;47622;47.726;3.298;2023-08-06T11:10:55;3.03;;;0.95;;
61702;SDS011;47622;47.726;3.298;2023-08-06T11:13:37;4.90;;;1.88;;
61702;SDS011;47622;47.726;3.298;2023-08-06T11:16:04;3.63;;;1.30;;
61702;SDS011;47622;47.726;3.298;2023-08-06T11:18:31;1.65;;;1.00;;
61702;SDS011;47622;47.726;3.298;2023-08-06T11:20:58;1.90;;;1.10;;
61702;SDS011;47622;47.726;3.298;2023-08-06T11:23:26;3.85;;;1.10;;
61702;SDS011;47622;47.726;3.298;2023-08-06T11:25:56;1.45;;;0.90;;
61702;SDS011;47622;47.726;3.298;2023-08-06T11:28:22;1.95;;;1.08;;
61702;SDS011;47622;47.726;3.298;2023-08-06T11:30:48;2.60;;;1.10;;
61702;SDS011;47622;47.726;3.298;2023-08-06T11:33:19;2.70;;;1.10;;
61702;SDS011;47622;47.726;3.298;2023-08-06T11:35:50;3.35;;;0.90;;
61702;SDS011;47622;47.726;3.298;2023-08-06T11:38:16;3.08;;;1.35;;
61702;SDS011;47622;47.726;3.298;2023-08-06T11:40:50;2.08;;;1.00;;
61702;SDS011;47622;47.726;3.298;2023-08-06T11:43:16;2.10;;;1.10;;
61702;SDS011;47622;47.726;3.298;2023-08-06T11:45:45;2.40;;;1.08;;
61702;SDS011;47622;47.726;3.298;2023-08-06T11:48:11;2.20;;;1.10;;
61702;SDS011;47622;47.726;3.298;2023-08-06T11:50:37;4.20;;;1.05;;
61702;SDS011;47622;47.726;3.298;2023-08-06T11:53:05;1.52;;;1.10;;
61702;SDS011;47622;47.726;3.298;2023-08-06T11:55:32;2.28;;;1.20;;
61702;SDS011;47622;47.726;3.298;2023-08-06T11:57:58;3.08;;;1.20;;
61702;SDS011;47622;47.726;3.298;2023-08-06T12:00:29;1.60;;;1.02;;
61702;SDS011;47622;47.726;3.298;2023-08-06T12:02:56;2.47;;;0.90;;
61702;SDS011;47622;47.726;3.298;2023-08-06T12:05:23;1.05;;;0.95;;
61702;SDS011;47622;47.726;3.298;2023-08-06T12:07:57;1.75;;;1.00;;
61702;SDS011;47622;47.726;3.298;2023-08-06T12:10:24;1.27;;;1.00;;
61702;SDS011;47622;47.726;3.298;2023-08-06T12:12:51;4.88;;;1.17;;
61702;SDS011;47622;47.726;3.298;2023-08-06T12:15:17;2.83;;;1.00;;
61702;SDS011;47622;47.726;3.298;2023-08-06T12:17:44;2.22;;;1.10;;
61702;SDS011;47622;47.726;3.298;2023-08-06T12:20:12;2.08;;;1.30;;
61702;SDS011;47622;47.726;3.298;2023-08-06T12:22:39;1.73;;;1.20;;
61702;SDS011;47622;47.726;3.298;2023-08-06T12:25:06;3.45;;;1.25;;
61702;SDS011;47622;47.726;3.298;2023-08-06T12:27:34;4.78;;;1.50;;
61702;SDS011;47622;47.726;3.298;2023-08-06T12:30:00;2.45;;;1.48;;
61702;SDS011;47622;47.726;3.298;2023-08-06T12:32:26;1.95;;;1.20;;
61702;SDS011;47622;47.726;3.298;2023-08-06T12:34:53;4.07;;;1.20;;
61702;SDS011;47622;47.726;3.298;2023-08-06T12:37:19;3.03;;;1.40;;
61702;SDS011;47622;47.726;3.298;2023-08-06T12:39:44;3.42;;;1.63;;
61702;SDS011;47622;47.726;3.298;2023-08-06T12:42:10;3.90;;;1.52;;
61702;SDS011;47622;47.726;3.298;2023-08-06T12:44:37;3.00;;;1.30;;
61702;SDS011;47622;47.726;3.298;2023-08-06T12:47:04;2.03;;;1.20;;
61702;SDS011;47622;47.726;3.298;2023-08-06T12:49:30;2.60;;;1.33;;
61702;SDS011;47622;47.726;3.298;2023-08-06T12:51:57;4.35;;;1.27;;
61702;SDS011;47622;47.726;3.298;2023-08-06T12:54:25;3.92;;;1.38;;
61702;SDS011;47622;47.726;3.298;2023-08-06T12:56:53;3.60;;;1.33;;
61702;SDS011;47622;47.726;3.298;2023-08-06T12:59:18;1.73;;;1.20;;
61702;SDS011;47622;47.726;3.298;2023-08-06T13:01:44;2.97;;;1.20;;
61702;SDS011;47622;47.726;3.298;2023-08-06T13:04:11;3.42;;;1.48;;
61702;SDS011;47622;47.726;3.298;2023-08-06T13:06:37;1.80;;;1.40;;
61702;SDS011;47622;47.726;3.298;2023-08-06T13:09:07;1.80;;;1.30;;
61702;SDS011;47622;47.726;3.298;2023-08-06T13:11:34;2.75;;;1.38;;
61702;SDS011;47622;47.726;3.298;2023-08-06T13:14:06;2.33;;;1.63;;
61702;SDS011;47622;47.726;3.298;2023-08-06T13:16:36;2.88;;;1.42;;
61702;SDS011;47622;47.726;3.298;2023-08-06T13:19:04;5.35;;;1.70;;
61702;SDS011;47622;47.726;3.298;2023-08-06T13:21:33;2.78;;;1.30;;
61702;SDS011;47622;47.726;3.298;2023-08-06T13:24:03;3.08;;;1.40;;
61702;SDS011;47622;47.726;3.298;2023-08-06T13:26:29;4.68;;;1.70;;
61702;SDS011;47622;47.726;3.298;2023-08-06T13:28:57;2.47;;;1.63;;
61702;SDS011;47622;47.726;3.298;2023-08-06T13:31:23;3.30;;;1.30;;
61702;SDS011;47622;47.726;3.298;2023-08-06T13:33:49;1.95;;;1.20;;
61702;SDS011;47622;47.726;3.298;2023-08-06T13:36:16;2.63;;;1.40;;
61702;SDS011;47622;47.726;3.298;2023-08-06T13:38:42;1.83;;;1.42;;
61702;SDS011;47622;47.726;3.298;2023-08-06T13:41:07;3.10;;;1.30;;
61702;SDS011;47622;47.726;3.298;2023-08-06T13:43:33;4.22;;;1.40;;
61702;SDS011;47622;47.726;3.298;2023-08-06T13:45:58;2.83;;;1.40;;
61702;SDS011;47622;47.726;3.298;2023-08-06T13:48:24;2.97;;;1.40;;
61702;SDS011;47622;47.726;3.298;2023-08-06T13:50:52;2.00;;;1.30;;
61702;SDS011;47622;47.726;3.298;2023-08-06T13:53:17;3.15;;;1.38;;
61702;SDS011;47622;47.726;3.298;2023-08-06T13:55:44;1.80;;;1.17;;
61702;SDS011;47622;47.726;3.298;2023-08-06T13:58:10;2.83;;;1.63;;
61702;SDS011;47622;47.726;3.298;2023-08-06T14:00:36;3.30;;;1.25;;
61702;SDS011;47622;47.726;3.298;2023-08-06T14:03:02;2.45;;;1.33;;
61702;SDS011;47622;47.726;3.298;2023-08-06T14:05:28;2.90;;;1.30;;
61702;SDS011;47622;47.726;3.298;2023-08-06T14:07:54;2.17;;;1.45;;
61702;SDS011;47622;47.726;3.298;2023-08-06T14:10:20;2.38;;;1.30;;
61702;SDS011;47622;47.726;3.298;2023-08-06T14:12:45;3.72;;;1.48;;
61702;SDS011;47622;47.726;3.298;2023-08-06T14:15:11;1.98;;;1.23;;
61702;SDS011;47622;47.726;3.298;2023-08-06T14:17:37;1.60;;;1.30;;
61702;SDS011;47622;47.726;3.298;2023-08-06T14:20:03;2.83;;;1.60;;
61702;SDS011;47622;47.726;3.298;2023-08-06T14:22:32;2.83;;;1.45;;
61702;SDS011;47622;47.726;3.298;2023-08-06T14:24:58;6.10;;;1.70;;
61702;SDS011;47622;47.726;3.298;2023-08-06T14:27:24;3.53;;;1.48;;
61702;SDS011;47622;47.726;3.298;2023-08-06T14:29:50;2.30;;;1.50;;
61702;SDS011;47622;47.726;3.298;2023-08-06T14:32:15;6.53;;;1.80;;
61702;SDS011;47622;47.726;3.298;2023-08-06T14:34:43;2.15;;;1.40;;
61702;SDS011;47622;47.726;3.298;2023-08-06T14:37:09;4.90;;;1.40;;
61702;SDS011;47622;47.726;3.298;2023-08-06T14:39:35;1.83;;;1.33;;
61702;SDS011;47622;47.726;3.298;2023-08-06T14:42:01;4.35;;;1.30;;
61702;SDS011;47622;47.726;3.298;2023-08-06T14:44:27;4.32;;;1.50;;
61702;SDS011;47622;47.726;3.298;2023-08-06T14:46:52;5.13;;;1.40;;
61702;SDS011;47622;47.726;3.298;2023-08-06T14:49:18;3.90;;;1.70;;
61702;SDS011;47622;47.726;3.298;2023-08-06T14:51:44;2.42;;;1.30;;
61702;SDS011;47622;47.726;3.298;2023-08-06T14:54:10;3.67;;;1.35;;
61702;SDS011;47622;47.726;3.298;2023-08-06T14:56:36;2.15;;;1.48;;
61702;SDS011;47622;47.726;3.298;2023-08-06T14:59:02;3.15;;;1.65;;